Time;durP1;ratioP1;P1;durP2;ratioP2;P2;SDS_P1;SDS_P2;PMS_P1;PMS_P2;Temp;Humidity;BMP_temperature;BMP_pressure;BME280_temperature;BME280_humidity;BME280_pressure;Samples;Min_cycle;Max_cycle;Signal;HPM_P1;HPM_P2
2023/04/27 00:01:58;;;;;;;10.25;4.50;;;;;;;7.13;65.35;102058.13;7395387;19;20039;-58
2023/04/27 00:04:25;;;;;;;9.13;4.22;;;;;;;7.16;65.01;102058.03;7390202;19;20035;-58
2023/04/27 00:06:53;;;;;;;11.70;4.30;;;;;;;7.16;64.98;102057.19;7393050;19;20035;-59
2023/04/27 00:09:20;;;;;;;9.95;3.50;;;;;;;7.15;65.08;102050.19;7395150;19;20015;-59
2023/04/27 00:11:47;;;;;;;12.77;4.80;;;;;;;7.08;65.29;102054.84;7394722;19;20022;-59
2023/04/27 00:14:14;;;;;;;9.20;4.22;;;;;;;7.09;65.08;102049.50;7392626;19;20007;-59
2023/04/27 00:16:41;;;;;;;10.85;4.72;;;;;;;7.19;64.84;102049.16;7394262;19;20010;-59
2023/04/27 00:19:08;;;;;;;11.25;3.90;;;;;;;7.11;64.79;102048.59;7394277;19;20022;-59
2023/04/27 00:21:35;;;;;;;8.02;3.90;;;;;;;7.08;64.82;102053.06;7394432;19;20047;-59
2023/04/27 00:24:03;;;;;;;7.43;3.70;;;;;;;7.09;64.68;102046.00;7392656;19;20022;-58
2023/04/27 00:26:30;;;;;;;9.40;3.72;;;;;;;7.04;65.05;102051.44;7392504;19;20023;-58
2023/04/27 00:28:57;;;;;;;10.15;4.05;;;;;;;7.13;64.67;102052.00;7392786;19;20130;-58
2023/04/27 00:31:24;;;;;;;9.10;3.70;;;;;;;6.92;65.09;102054.56;7393714;19;20035;-57
2023/04/27 00:33:51;;;;;;;10.85;3.67;;;;;;;6.87;65.27;102048.63;7392505;19;20014;-59
2023/04/27 00:36:18;;;;;;;9.35;4.25;;;;;;;6.89;65.25;102049.41;7393662;19;20018;-58
2023/04/27 00:38:45;;;;;;;8.45;3.67;;;;;;;6.89;65.39;102056.44;7391134;19;20015;-58
2023/04/27 00:41:12;;;;;;;10.32;4.30;;;;;;;6.87;65.21;102058.25;7394151;19;20024;-59
2023/04/27 00:43:43;;;;;;;9.18;4.00;;;;;;;6.95;65.47;102066.75;7391834;19;20022;-59
2023/04/27 00:46:15;;;;;;;11.52;4.20;;;;;;;6.99;65.08;102063.09;7392324;19;20082;-59
2023/04/27 00:48:43;;;;;;;8.90;4.25;;;;;;;6.86;65.63;102064.44;7392862;19;20022;-58
2023/04/27 00:51:10;;;;;;;10.68;4.25;;;;;;;6.92;65.44;102067.72;7393907;19;20043;-58
2023/04/27 00:53:38;;;;;;;12.20;4.40;;;;;;;6.93;65.57;102064.16;7391501;19;20014;-59
2023/04/27 00:56:06;;;;;;;11.85;4.68;;;;;;;6.90;65.67;102066.06;7393392;19;20078;-59
2023/04/27 00:58:33;;;;;;;9.80;4.53;;;;;;;6.82;66.10;102067.19;7390701;19;20040;-58
2023/04/27 01:01:00;;;;;;;10.52;4.40;;;;;;;6.87;66.22;102072.31;7393921;19;20030;-58
2023/04/27 01:03:28;;;;;;;13.82;4.63;;;;;;;6.79;66.04;102079.59;7390150;19;20397;-59
2023/04/27 01:05:58;;;;;;;10.48;4.30;;;;;;;6.70;66.08;102072.91;7390803;19;20035;-59
2023/04/27 01:08:25;;;;;;;11.95;4.38;;;;;;;6.74;66.16;102085.03;7392400;19;20082;-59
2023/04/27 01:10:52;;;;;;;12.07;4.35;;;;;;;6.75;66.00;102078.00;7392382;19;20071;-59
2023/04/27 01:13:19;;;;;;;10.55;4.20;;;;;;;6.76;66.16;102080.59;7391873;19;20051;-58
2023/04/27 01:15:46;;;;;;;11.93;4.47;;;;;;;6.64;66.24;102080.16;7391837;19;20031;-59
2023/04/27 01:18:13;;;;;;;10.57;4.80;;;;;;;6.58;66.48;102086.53;7392798;19;20044;-59
2023/04/27 01:20:41;;;;;;;8.43;4.45;;;;;;;6.67;66.20;102087.97;7389693;19;20126;-58
2023/04/27 01:23:11;;;;;;;12.55;4.55;;;;;;;6.73;66.01;102087.75;7389631;19;20544;-59
2023/04/27 01:25:42;;;;;;;12.52;4.68;;;;;;;6.66;66.35;102089.72;7391555;19;20014;-59
2023/04/27 01:28:09;;;;;;;9.32;4.63;;;;;;;6.64;66.36;102090.69;7390663;19;20044;-59
2023/04/27 01:30:36;;;;;;;12.80;5.15;;;;;;;6.63;66.31;102095.09;7389757;19;20039;-59
2023/04/27 01:33:03;;;;;;;9.25;4.68;;;;;;;6.54;66.45;102091.03;7391430;19;20062;-59
2023/04/27 01:35:30;;;;;;;10.15;4.40;;;;;;;6.54;66.72;102103.34;7391551;19;20026;-58
2023/04/27 01:37:58;;;;;;;10.95;4.88;;;;;;;6.50;66.61;102091.19;7364646;19;20018;-58
2023/04/27 01:40:25;;;;;;;11.88;4.88;;;;;;;6.51;66.59;102098.16;7391150;19;20022;-59
2023/04/27 01:42:51;;;;;;;12.82;4.97;;;;;;;6.55;66.31;102103.25;7389531;19;20119;-58
2023/04/27 01:45:18;;;;;;;9.95;4.53;;;;;;;6.45;66.62;102099.25;7389745;19;20026;-58
2023/04/27 01:47:46;;;;;;;14.07;4.60;;;;;;;6.39;66.88;102095.97;7387683;19;20029;-59
2023/04/27 01:50:13;;;;;;;12.02;5.25;;;;;;;6.43;66.88;102106.34;7390804;19;20014;-59
2023/04/27 01:52:40;;;;;;;13.00;4.97;;;;;;;6.35;67.15;102105.75;7389330;19;20018;-59
2023/04/27 01:55:07;;;;;;;12.32;5.07;;;;;;;6.40;67.07;102098.53;7391763;19;20022;-59
2023/04/27 01:57:34;;;;;;;10.38;4.72;;;;;;;6.44;66.42;102108.03;7391664;19;20015;-58
2023/04/27 02:00:02;;;;;;;10.25;4.60;;;;;;;6.51;66.25;102109.56;7388999;19;20018;-59
2023/04/27 02:02:29;;;;;;;11.13;4.70;;;;;;;6.45;66.53;102112.41;7391756;19;20018;-59
2023/04/27 02:04:56;;;;;;;12.15;4.72;;;;;;;6.47;66.34;102109.72;7391112;19;20031;-59
2023/04/27 02:07:23;;;;;;;12.50;4.68;;;;;;;6.46;66.08;102108.88;7389526;19;20045;-59
2023/04/27 02:09:50;;;;;;;12.82;4.65;;;;;;;6.33;66.75;102105.81;7389134;19;20039;-58
2023/04/27 02:12:17;;;;;;;13.63;4.85;;;;;;;6.21;66.81;102103.56;7387171;19;20377;-57
2023/04/27 02:14:44;;;;;;;12.10;4.82;;;;;;;6.16;67.38;102104.66;7388014;19;20035;-58
2023/04/27 02:17:11;;;;;;;10.68;5.30;;;;;;;6.13;67.33;102104.75;7389318;19;20081;-59
2023/04/27 02:19:38;;;;;;;11.00;5.05;;;;;;;6.09;67.28;102107.47;7387811;19;20086;-58
2023/04/27 02:22:05;;;;;;;11.35;5.20;;;;;;;6.10;67.26;102105.69;7385591;19;20524;-58
2023/04/27 02:24:34;;;;;;;12.30;4.82;;;;;;;6.05;67.65;102118.16;7390099;19;20038;-58
2023/04/27 02:27:02;;;;;;;10.73;4.90;;;;;;;6.10;67.26;102108.31;7389795;19;20018;-59
2023/04/27 02:29:30;;;;;;;10.50;4.95;;;;;;;6.14;67.03;102112.56;7389926;19;20018;-59
2023/04/27 02:31:57;;;;;;;13.18;6.10;;;;;;;6.19;66.53;102112.44;7390788;19;20031;-59
2023/04/27 02:34:25;;;;;;;16.38;8.57;;;;;;;6.18;66.61;102108.97;7385852;19;20081;-59
2023/04/27 02:36:51;;;;;;;15.77;8.95;;;;;;;6.20;66.51;102108.88;7390676;19;20078;-59
2023/04/27 02:39:18;;;;;;;15.63;8.90;;;;;;;6.16;66.90;102105.50;7389680;19;20026;-59
2023/04/27 02:41:45;;;;;;;11.93;6.88;;;;;;;6.05;66.67;102111.13;7390103;19;20047;-59
2023/04/27 02:44:12;;;;;;;11.23;6.53;;;;;;;6.02;66.93;102111.22;7388548;19;20018;-59
2023/04/27 02:46:39;;;;;;;12.25;4.95;;;;;;;6.05;67.13;102108.47;7389611;19;20022;-58
2023/04/27 02:49:06;;;;;;;9.52;5.60;;;;;;;6.06;66.84;102114.59;7388984;19;20049;-58
2023/04/27 02:51:33;;;;;;;12.75;5.15;;;;;;;5.98;66.98;102112.22;7389863;19;20015;-59
2023/04/27 02:54:00;;;;;;;11.13;5.40;;;;;;;5.97;67.10;102109.66;7387872;19;20025;-72
2023/04/27 02:56:28;;;;;;;11.70;4.85;;;;;;;5.97;67.19;102118.41;7389741;19;20418;-63
2023/04/27 02:58:55;;;;;;;12.77;4.90;;;;;;;5.99;67.09;102115.69;7387563;19;20140;-62
2023/04/27 03:01:22;;;;;;;11.38;4.55;;;;;;;5.96;67.16;102108.78;7392577;19;20018;-63
2023/04/27 03:03:49;;;;;;;12.00;4.93;;;;;;;5.88;67.30;102113.41;7395158;19;20019;-63
2023/04/27 03:06:17;;;;;;;9.68;5.30;;;;;;;5.84;67.62;102111.78;7396504;19;20018;-65
2023/04/27 03:08:45;;;;;;;10.60;4.80;;;;;;;5.76;67.86;102108.53;7396831;19;20018;-63
2023/04/27 03:11:12;;;;;;;8.88;4.93;;;;;;;5.89;67.43;102104.59;7396400;19;20741;-67
2023/04/27 03:13:42;;;;;;;9.85;4.70;;;;;;;5.86;67.29;102110.81;7394901;19;20040;-65
2023/04/27 03:16:10;;;;;;;8.60;4.30;;;;;;;5.87;67.29;102107.28;7396220;19;20054;-64
2023/04/27 03:18:38;;;;;;;13.52;4.53;;;;;;;5.86;67.59;102110.81;7396804;19;20010;-64
2023/04/27 03:21:11;;;;;;;8.95;4.68;;;;;;;5.93;67.27;102113.28;7397214;19;20018;-64
2023/04/27 03:23:38;;;;;;;10.25;4.53;;;;;;;5.80;67.76;102115.41;7394839;19;20031;-65
2023/04/27 03:26:07;;;;;;;11.52;5.20;;;;;;;5.79;67.77;102116.31;7396100;19;20038;-64
2023/04/27 03:28:34;;;;;;;11.20;5.03;;;;;;;5.96;67.04;102114.06;7393747;19;20011;-65
2023/04/27 03:31:06;;;;;;;10.70;4.68;;;;;;;5.92;67.26;102116.81;7395758;19;20039;-63
2023/04/27 03:33:33;;;;;;;12.73;5.00;;;;;;;5.87;67.32;102116.94;7394462;19;20511;-67
2023/04/27 03:36:01;;;;;;;11.82;5.65;;;;;;;5.84;67.45;102110.03;7395794;19;20018;-65
2023/04/27 03:38:29;;;;;;;10.48;4.82;;;;;;;5.81;68.01;102114.50;7393914;19;20515;-63
2023/04/27 03:40:56;;;;;;;12.40;5.25;;;;;;;5.87;67.60;102115.16;7396132;19;20018;-63
2023/04/27 03:43:24;;;;;;;8.38;4.90;;;;;;;5.87;67.32;102114.31;7396522;19;20037;-64
2023/04/27 03:45:51;;;;;;;10.10;5.30;;;;;;;5.74;67.82;102120.88;7396297;19;20011;-64
2023/04/27 03:48:19;;;;;;;11.43;5.43;;;;;;;5.80;67.73;102125.91;7394006;19;20475;-65
2023/04/27 03:50:47;;;;;;;13.77;5.65;;;;;;;5.74;68.02;102128.75;7397304;19;20010;-62
2023/04/27 03:53:14;;;;;;;10.27;5.05;;;;;;;5.72;68.18;102125.31;7398193;19;20025;-61
2023/04/27 03:55:42;;;;;;;10.90;5.15;;;;;;;5.69;67.87;102131.53;7394643;19;20014;-66
2023/04/27 03:58:10;;;;;;;12.07;5.45;;;;;;;5.64;68.13;102122.91;7394966;19;20450;-64
2023/04/27 04:00:37;;;;;;;11.50;5.15;;;;;;;5.60;68.55;102130.03;7391940;19;20104;-64
2023/04/27 04:03:05;;;;;;;12.35;5.25;;;;;;;5.70;67.78;102116.63;7394147;19;20018;-68
2023/04/27 04:05:33;;;;;;;13.45;5.97;;;;;;;5.66;68.42;102120.25;7394982;19;20166;-65
2023/04/27 04:08:00;;;;;;;11.18;5.35;;;;;;;5.64;68.23;102122.91;7391903;19;20039;-68
2023/04/27 04:10:27;;;;;;;8.73;4.75;;;;;;;5.71;67.97;102131.47;7392785;19;20021;-72
2023/04/27 04:12:54;;;;;;;12.27;5.72;;;;;;;5.71;67.77;102127.06;7391254;19;20043;-73
2023/04/27 04:15:21;;;;;;;9.90;5.38;;;;;;;5.67;67.88;102129.84;7394599;19;20015;-63
2023/04/27 04:17:48;;;;;;;10.25;5.57;;;;;;;5.56;68.58;102124.91;7393760;19;20039;-62
2023/04/27 04:20:15;;;;;;;12.02;5.72;;;;;;;5.66;68.10;102129.00;7393237;19;20411;-62
2023/04/27 04:22:43;;;;;;;9.75;5.30;;;;;;;5.68;67.98;102132.41;7393464;19;20483;-64
2023/04/27 04:25:10;;;;;;;11.43;5.40;;;;;;;5.78;67.82;102139.13;7394286;19;20355;-62
2023/04/27 04:27:37;;;;;;;12.52;5.22;;;;;;;5.67;68.41;102143.00;7393120;19;20059;-62
2023/04/27 04:30:06;;;;;;;10.43;5.22;;;;;;;5.67;68.62;102143.84;7394291;19;20022;-62
2023/04/27 04:32:36;;;;;;;11.88;5.80;;;;;;;5.69;68.44;102142.03;7392623;19;20022;-62
2023/04/27 04:35:05;;;;;;;11.00;5.60;;;;;;;5.68;68.61;102148.19;7393999;19;20035;-62
2023/04/27 04:37:35;;;;;;;13.57;6.20;;;;;;;5.70;68.69;102148.16;7393561;19;20047;-61
2023/04/27 04:40:09;;;;;;;12.43;6.07;;;;;;;5.75;68.82;102140.97;7392505;19;20022;-61
2023/04/27 04:42:37;;;;;;;13.35;6.00;;;;;;;5.86;68.22;102139.72;7393186;19;20033;-61
2023/04/27 04:45:05;;;;;;;13.85;5.90;;;;;;;5.87;68.49;102146.69;7393304;19;20022;-61
2023/04/27 04:47:33;;;;;;;12.68;5.50;;;;;;;5.94;68.27;102141.28;7393133;19;20022;-61
2023/04/27 04:50:00;;;;;;;11.23;5.82;;;;;;;5.94;68.26;102143.94;7393381;19;20036;-69
2023/04/27 04:52:28;;;;;;;11.93;5.47;;;;;;;5.85;68.80;102150.31;7393160;19;20043;-69
2023/04/27 04:54:55;;;;;;;13.90;5.80;;;;;;;5.80;68.96;102141.69;7391770;19;20122;-69
2023/04/27 04:57:22;;;;;;;16.05;6.13;;;;;;;5.88;69.01;102144.97;7392062;19;20094;-69
2023/04/27 04:59:49;;;;;;;13.20;5.60;;;;;;;5.90;69.19;102144.91;7391324;19;20030;-69
2023/04/27 05:02:16;;;;;;;15.35;5.95;;;;;;;5.95;68.89;102149.13;7393106;19;20018;-69
2023/04/27 05:04:43;;;;;;;12.45;5.65;;;;;;;5.97;68.51;102147.31;7393015;19;20051;-69
2023/04/27 05:07:10;;;;;;;11.80;5.72;;;;;;;5.95;69.00;102145.63;7391194;19;20072;-69
2023/04/27 05:09:40;;;;;;;12.73;5.85;;;;;;;6.06;68.69;102148.78;7392832;19;20022;-69
2023/04/27 05:12:08;;;;;;;11.88;5.20;;;;;;;6.05;68.70;102153.19;7391325;19;20018;-69
2023/04/27 05:14:35;;;;;;;12.07;5.57;;;;;;;6.10;68.49;102145.13;7393056;19;20035;-69
2023/04/27 05:17:02;;;;;;;13.73;5.93;;;;;;;6.21;68.45;102150.06;7392171;19;20022;-62
2023/04/27 05:19:30;;;;;;;10.88;4.90;;;;;;;6.29;68.27;102148.03;7392829;19;20022;-63
2023/04/27 05:21:57;;;;;;;11.75;5.18;;;;;;;6.28;67.83;102152.44;7392640;19;20327;-64
2023/04/27 05:24:25;;;;;;;11.90;5.10;;;;;;;6.34;67.70;102160.13;7389706;19;20014;-64
2023/04/27 05:26:53;;;;;;;13.38;5.50;;;;;;;6.38;67.45;102162.66;7391876;19;20047;-65
2023/04/27 05:29:21;;;;;;;13.13;4.93;;;;;;;6.40;67.11;102168.72;7388976;19;20018;-64
2023/04/27 05:31:48;;;;;;;11.93;5.20;;;;;;;6.40;67.24;102169.56;7391933;19;20043;-64
2023/04/27 05:34:15;;;;;;;12.23;5.45;;;;;;;6.37;67.12;102172.31;7390682;19;20069;-65
2023/04/27 05:36:42;;;;;;;13.30;6.03;;;;;;;6.32;67.12;102175.09;7391936;19;20078;-64
2023/04/27 05:39:09;;;;;;;15.18;5.03;;;;;;;6.32;67.23;102169.84;7389922;19;20018;-64
2023/04/27 05:41:36;;;;;;;10.02;5.07;;;;;;;6.41;66.87;102171.31;7392193;19;20043;-64
2023/04/27 05:44:03;;;;;;;12.98;5.82;;;;;;;6.46;67.23;102172.00;7390096;19;20019;-64
2023/04/27 05:46:30;;;;;;;12.15;5.20;;;;;;;6.44;67.16;102178.22;7391264;19;20035;-64
2023/04/27 05:48:57;;;;;;;12.75;5.82;;;;;;;6.49;66.90;102171.91;7389546;19;20031;-64
2023/04/27 05:51:24;;;;;;;10.93;5.00;;;;;;;6.50;67.14;102170.13;7391748;19;20022;-64
2023/04/27 05:53:54;;;;;;;11.98;5.70;;;;;;;6.59;66.92;102168.03;7390453;19;20066;-64
2023/04/27 05:56:21;;;;;;;9.15;4.80;;;;;;;6.70;66.47;102186.09;7389946;19;20018;-64
2023/04/27 05:58:48;;;;;;;11.23;5.70;;;;;;;6.67;66.41;102188.84;7391437;19;20014;-65
2023/04/27 06:01:15;;;;;;;13.93;5.35;;;;;;;6.61;66.35;102185.56;7391745;19;20038;-64
2023/04/27 06:03:42;;;;;;;11.40;4.72;;;;;;;6.66;66.76;102183.63;7388367;19;20512;-64
2023/04/27 06:06:10;;;;;;;13.10;5.70;;;;;;;6.86;65.93;102190.84;7391386;19;20095;-63
2023/04/27 06:08:38;;;;;;;10.48;5.05;;;;;;;6.94;65.42;102194.06;7387756;19;20504;-64
2023/04/27 06:11:05;;;;;;;12.23;5.57;;;;;;;6.93;65.55;102192.34;7391669;19;20010;-63
2023/04/27 06:13:32;;;;;;;10.82;5.00;;;;;;;6.98;65.58;102185.13;7389274;19;20018;-63
2023/04/27 06:16:00;;;;;;;17.23;6.15;;;;;;;7.02;65.18;102194.63;7391223;19;20018;-64
2023/04/27 06:18:27;;;;;;;13.25;5.28;;;;;;;7.07;65.05;102198.84;7390628;19;20383;-64
2023/04/27 06:21:00;;;;;;;13.27;5.50;;;;;;;7.14;64.84;102203.91;7391081;19;20014;-64
2023/04/27 06:23:28;;;;;;;14.23;5.72;;;;;;;7.19;65.11;102205.44;7389484;19;20026;-64
2023/04/27 06:25:55;;;;;;;17.85;5.47;;;;;;;7.12;64.91;102205.72;7389791;19;20421;-64
2023/04/27 06:28:22;;;;;;;16.80;5.28;;;;;;;7.18;64.77;102206.38;7387591;19;20043;-62
2023/04/27 06:30:49;;;;;;;10.35;5.10;;;;;;;7.26;64.29;102206.94;7390993;19;20134;-62
2023/04/27 06:33:16;;;;;;;13.52;5.00;;;;;;;7.35;64.15;102215.44;7389704;19;20051;-62
2023/04/27 06:35:44;;;;;;;10.32;4.50;;;;;;;7.45;64.21;102217.66;7391081;19;20022;-62
2023/04/27 06:38:13;;;;;;;12.90;5.15;;;;;;;7.48;63.63;102208.81;7396544;19;20386;-62
2023/04/27 06:40:40;;;;;;;13.63;5.63;;;;;;;7.47;63.55;102213.19;7396351;19;20015;-62
2023/04/27 06:43:07;;;;;;;13.23;5.75;;;;;;;7.47;63.59;102213.19;7396834;19;20024;-62
2023/04/27 06:45:34;;;;;;;14.13;5.60;;;;;;;7.61;63.32;102209.19;7398238;19;20031;-62
2023/04/27 06:48:02;;;;;;;10.15;4.70;;;;;;;7.72;62.61;102209.63;7397158;19;20014;-61
2023/04/27 06:50:29;;;;;;;8.00;4.07;;;;;;;7.77;62.44;102212.94;7397441;19;20090;-62
2023/04/27 06:52:56;;;;;;;10.98;4.47;;;;;;;7.77;62.68;102205.91;7396806;19;20043;-61
2023/04/27 06:55:23;;;;;;;15.35;5.22;;;;;;;7.82;62.50;102203.06;7397260;19;20035;-62
2023/04/27 06:57:50;;;;;;;12.27;4.47;;;;;;;7.90;62.07;102208.94;7397550;19;20094;-61
2023/04/27 07:00:18;;;;;;;13.18;4.75;;;;;;;7.87;61.54;102208.19;7396575;19;20034;-62
2023/04/27 07:02:45;;;;;;;13.90;4.07;;;;;;;7.91;61.26;102209.78;7396602;19;20045;-62
2023/04/27 07:05:13;;;;;;;16.90;4.18;;;;;;;7.97;61.13;102201.63;7396875;19;20039;-63
2023/04/27 07:07:40;;;;;;;15.85;4.57;;;;;;;8.03;60.30;102207.53;7397041;19;20025;-63
2023/04/27 07:10:08;;;;;;;15.88;4.60;;;;;;;8.12;59.75;102198.38;7395582;19;20167;-63
2023/04/27 07:12:36;;;;;;;9.88;4.03;;;;;;;8.17;59.54;102204.34;7396242;19;20011;-62
2023/04/27 07:15:05;;;;;;;11.90;3.67;;;;;;;8.20;59.52;102200.69;7396126;19;20031;-62
2023/04/27 07:17:32;;;;;;;13.50;4.25;;;;;;;8.23;59.65;102195.31;7397024;19;20014;-62
2023/04/27 07:20:04;;;;;;;15.15;4.40;;;;;;;8.29;60.18;102201.19;7396532;19;20018;-62
2023/04/27 07:22:32;;;;;;;11.77;4.30;;;;;;;8.30;60.48;102194.13;7396922;19;20018;-62
2023/04/27 07:24:59;;;;;;;12.00;4.55;;;;;;;8.37;60.37;102195.63;7396243;19;20038;-62
2023/04/27 07:27:26;;;;;;;14.57;4.90;;;;;;;8.44;59.91;102197.09;7396687;19;20022;-62
2023/04/27 07:29:53;;;;;;;12.25;5.30;;;;;;;8.54;59.40;102198.41;7393490;19;20024;-62
2023/04/27 07:32:21;;;;;;;11.93;4.70;;;;;;;8.54;59.25;102198.41;7394101;19;20018;-62
2023/04/27 07:34:49;;;;;;;12.57;4.65;;;;;;;8.60;58.84;102196.47;7394088;19;20032;-62
2023/04/27 07:37:20;;;;;;;9.85;4.22;;;;;;;8.65;58.67;102197.97;7396580;19;20043;-66
2023/04/27 07:39:50;;;;;;;13.13;4.03;;;;;;;8.60;58.48;102192.03;7395499;19;20015;-65
2023/04/27 07:42:18;;;;;;;12.48;4.13;;;;;;;8.67;58.56;102195.28;7396013;19;20018;-65
2023/04/27 07:44:46;;;;;;;13.77;4.15;;;;;;;8.74;58.45;102202.88;7395019;19;20018;-65
2023/04/27 07:47:13;;;;;;;10.63;4.30;;;;;;;8.84;57.71;102195.41;7394093;19;20015;-66
2023/04/27 07:49:40;;;;;;;12.05;3.90;;;;;;;8.87;57.61;102192.63;7393724;19;20044;-66
2023/04/27 07:52:07;;;;;;;12.07;3.97;;;;;;;8.94;57.19;102198.53;7395851;19;20018;-64
2023/04/27 07:54:34;;;;;;;22.75;8.13;;;;;;;8.99;56.49;102196.53;7395171;19;20535;-64
2023/04/27 07:57:07;;;;;;;27.40;12.25;;;;;;;8.96;55.50;102200.16;7395752;19;20010;-64
2023/04/27 07:59:33;;;;;;;17.25;8.35;;;;;;;8.99;55.13;102200.03;7393657;19;20051;-65
2023/04/27 08:02:00;;;;;;;15.38;6.20;;;;;;;9.01;54.68;102203.47;7395662;19;20145;-65
2023/04/27 08:04:43;;;;;;;12.05;3.90;;;;;;;9.08;54.12;102195.25;7394029;19;20245;-65
2023/04/27 08:07:11;;;;;;;10.05;3.60;;;;;;;9.13;53.53;102188.84;7395435;19;20026;-65
2023/04/27 08:09:38;;;;;;;11.35;3.78;;;;;;;9.08;53.05;102189.97;7392681;19;20090;-64
2023/04/27 08:12:05;;;;;;;9.82;3.28;;;;;;;9.10;52.76;102191.63;7394585;19;20030;-63
2023/04/27 08:14:34;;;;;;;9.23;3.35;;;;;;;9.21;52.71;102191.16;7394584;19;20818;-63
2023/04/27 08:17:01;;;;;;;8.23;3.33;;;;;;;9.24;52.39;102180.44;7395087;19;20019;-63
2023/04/27 08:19:28;;;;;;;9.10;2.85;;;;;;;9.30;52.04;102182.78;7392620;19;20579;-67
2023/04/27 08:21:55;;;;;;;8.75;3.10;;;;;;;9.24;51.13;102185.75;7393249;19;20055;-64
2023/04/27 08:24:22;;;;;;;7.35;2.80;;;;;;;9.27;51.83;102180.28;7390823;19;20018;-65
2023/04/27 08:26:49;;;;;;;10.77;3.25;;;;;;;9.40;51.67;102177.97;7392763;19;20455;-64
2023/04/27 08:29:16;;;;;;;7.63;2.88;;;;;;;9.48;51.84;102184.59;7393072;19;20031;-65
2023/04/27 08:31:55;;;;;;;15.30;3.50;;;;;;;9.49;51.18;102181.03;7394931;19;20015;-65
2023/04/27 08:34:23;;;;;;;9.32;3.45;;;;;;;9.51;50.80;102178.31;7392533;19;20019;-65
2023/04/27 08:36:50;;;;;;;9.25;3.10;;;;;;;9.55;50.32;102177.25;7393495;19;20015;-65
2023/04/27 08:39:17;;;;;;;5.90;2.60;;;;;;;9.53;49.43;102176.44;7393429;19;20018;-64
2023/04/27 08:41:45;;;;;;;8.90;2.60;;;;;;;9.55;48.50;102174.63;7394514;19;20134;-65
2023/04/27 08:44:12;;;;;;;7.85;2.55;;;;;;;9.61;47.80;102176.09;7391167;19;20039;-65
2023/04/27 08:46:39;;;;;;;7.30;2.45;;;;;;;9.71;47.60;102185.31;7393237;19;20046;-65
2023/04/27 08:49:07;;;;;;;7.18;2.15;;;;;;;9.69;46.84;102182.78;7391223;19;20188;-65
2023/04/27 08:51:34;;;;;;;6.65;2.80;;;;;;;9.68;46.74;102169.59;7393470;19;20097;-65
2023/04/27 08:54:01;;;;;;;9.60;2.75;;;;;;;9.75;46.95;102169.22;7391519;19;20014;-65
2023/04/27 08:56:29;;;;;;;9.38;2.50;;;;;;;9.86;46.43;102170.53;7393004;19;20487;-64
2023/04/27 08:58:57;;;;;;;8.50;2.67;;;;;;;9.87;45.80;102177.50;7389670;19;20503;-65
2023/04/27 09:01:26;;;;;;;8.80;2.65;;;;;;;9.93;46.69;102174.59;7393527;19;20014;-63
2023/04/27 09:03:58;;;;;;;7.28;2.50;;;;;;;9.94;46.74;102174.50;7392002;19;20044;-66
2023/04/27 09:06:34;;;;;;;7.45;2.78;;;;;;;10.04;46.61;102176.72;7393108;19;20465;-66
2023/04/27 09:09:02;;;;;;;8.52;2.95;;;;;;;10.10;45.95;102171.97;7391765;19;20029;-62
2023/04/27 09:11:32;;;;;;;8.60;2.80;;;;;;;10.20;45.66;102177.69;7393436;19;20118;-64
2023/04/27 09:14:01;;;;;;;8.05;2.88;;;;;;;10.21;46.26;102171.44;7392131;19;20018;-64
2023/04/27 09:16:29;;;;;;;9.77;3.33;;;;;;;10.19;45.89;102182.13;7392152;19;20014;-64
2023/04/27 09:18:58;;;;;;;9.88;3.53;;;;;;;10.19;45.68;102179.47;7392707;19;20031;-64
2023/04/27 09:21:27;;;;;;;10.55;3.40;;;;;;;10.18;45.06;102179.53;7392704;19;20042;-64
2023/04/27 09:23:55;;;;;;;9.73;3.60;;;;;;;10.24;45.22;102182.75;7391041;19;20037;-64
2023/04/27 09:26:25;;;;;;;9.27;3.42;;;;;;;10.42;44.71;102174.88;7392282;19;20055;-64
2023/04/27 09:28:57;;;;;;;7.03;2.72;;;;;;;10.65;44.40;102179.84;7390068;19;20019;-66
2023/04/27 09:31:36;;;;;;;9.38;3.17;;;;;;;10.83;43.38;102185.97;7392319;19;20018;-67
2023/04/27 09:34:04;;;;;;;7.47;2.80;;;;;;;10.86;43.75;102188.47;7391009;19;20041;-67
2023/04/27 09:36:33;;;;;;;8.75;2.78;;;;;;;11.02;43.35;102188.53;7391613;19;20015;-66
2023/04/27 09:39:04;;;;;;;7.22;3.03;;;;;;;10.99;42.99;102180.75;7391799;19;20130;-66
2023/04/27 09:41:32;;;;;;;9.10;2.97;;;;;;;10.97;43.07;102182.63;7390477;19;20018;-64
2023/04/27 09:44:00;;;;;;;6.78;2.80;;;;;;;11.11;43.10;102181.91;7390756;19;20018;-65
2023/04/27 09:46:28;;;;;;;4.72;2.40;;;;;;;11.19;42.44;102179.69;7391626;19;20135;-65
2023/04/27 09:48:56;;;;;;;5.63;2.50;;;;;;;11.13;42.10;102183.50;7390728;19;20011;-65
2023/04/27 09:51:27;;;;;;;5.55;2.58;;;;;;;11.16;40.66;102179.84;7392278;19;20026;-65
2023/04/27 09:54:01;;;;;;;8.32;2.40;;;;;;;11.33;39.62;102179.81;7389831;19;20349;-65
2023/04/27 09:56:43;;;;;;;7.15;2.63;;;;;;;11.52;39.39;102182.31;7391519;19;20519;-65
2023/04/27 09:59:39;;;;;;;4.68;2.53;;;;;;;11.53;39.14;102167.25;7391458;19;20039;-64
2023/04/27 10:02:11;;;;;;;7.97;2.75;;;;;;;11.40;40.26;102177.66;7389420;19;20026;-64
2023/04/27 10:05:10;;;;;;;5.03;2.63;;;;;;;11.33;40.11;102173.63;7389509;19;20094;-65
2023/04/27 10:07:40;;;;;;;7.95;2.75;;;;;;;11.37;40.80;102178.72;7391142;19;20499;-65
2023/04/27 10:10:17;;;;;;;7.53;2.40;;;;;;;11.36;40.54;102182.28;7387803;19;20018;-64
2023/04/27 10:12:55;;;;;;;6.25;2.60;;;;;;;11.37;41.14;102169.88;7389552;19;20010;-65
2023/04/27 10:15:27;;;;;;;8.13;2.47;;;;;;;11.44;40.65;102174.75;7389207;19;20010;-65
2023/04/27 10:17:57;;;;;;;7.25;2.67;;;;;;;11.29;40.37;102178.25;7390860;19;20043;-65
2023/04/27 10:20:32;;;;;;;5.45;2.63;;;;;;;11.17;40.69;102181.56;7390622;19;20018;-64
2023/04/27 10:23:00;;;;;;;5.60;2.83;;;;;;;11.11;41.04;102176.59;7389724;19;20018;-65
2023/04/27 10:25:41;;;;;;;6.13;2.70;;;;;;;11.10;40.47;102182.81;7390776;19;20024;-64
2023/04/27 10:28:15;;;;;;;7.60;2.60;;;;;;;11.15;40.69;102178.16;7390825;19;20019;-67
2023/04/27 10:30:47;;;;;;;5.13;2.60;;;;;;;11.25;40.83;102178.50;7388785;19;20019;-67
2023/04/27 10:33:21;;;;;;;5.90;2.88;;;;;;;11.54;40.16;102180.44;7389388;19;20494;-68
2023/04/27 10:35:56;;;;;;;8.55;2.50;;;;;;;11.80;39.80;102171.03;7390331;19;20022;-67
2023/04/27 10:38:39;;;;;;;5.93;2.47;;;;;;;11.85;39.93;102169.00;7390301;19;20504;-64
2023/04/27 10:41:13;;;;;;;6.97;2.35;;;;;;;11.85;39.89;102169.00;7388878;19;20028;-64
2023/04/27 10:43:40;;;;;;;6.30;2.60;;;;;;;12.00;40.10;102164.63;7387367;19;20015;-65
2023/04/27 10:46:16;;;;;;;7.75;2.80;;;;;;;12.03;39.81;102160.94;7390685;19;20022;-64
2023/04/27 10:48:43;;;;;;;5.20;2.90;;;;;;;12.15;39.71;102161.09;7389636;19;20031;-64
2023/04/27 10:51:15;;;;;;;6.95;3.10;;;;;;;12.20;39.71;102152.84;7389809;19;20626;-64
2023/04/27 10:53:42;;;;;;;8.15;3.38;;;;;;;12.11;40.04;102148.94;7388185;19;20015;-64
2023/04/27 10:56:17;;;;;;;6.45;3.15;;;;;;;12.01;39.72;102161.03;7389446;19;20476;-68
2023/04/27 10:58:44;;;;;;;6.72;3.20;;;;;;;11.84;40.13;102156.69;7390011;19;20122;-67
2023/04/27 11:01:25;;;;;;;7.47;3.50;;;;;;;11.90;39.76;102155.47;7390038;19;20018;-63
2023/04/27 11:04:00;;;;;;;6.53;3.20;;;;;;;12.01;40.15;102162.81;7389216;19;20040;-62
2023/04/27 11:06:29;;;;;;;8.90;3.05;;;;;;;12.08;40.50;102151.75;7389513;19;20015;-63
2023/04/27 11:09:00;;;;;;;6.35;3.03;;;;;;;12.01;39.73;102149.53;7387344;19;20033;-63
2023/04/27 11:11:27;;;;;;;8.30;3.10;;;;;;;12.04;40.53;102149.38;7388342;19;20030;-63
2023/04/27 11:13:54;;;;;;;6.97;3.10;;;;;;;12.14;40.12;102142.59;7386397;19;20052;-63
2023/04/27 11:16:22;;;;;;;5.93;2.97;;;;;;;12.16;39.36;102136.25;7389272;19;20059;-63
2023/04/27 11:18:53;;;;;;;7.07;3.38;;;;;;;12.23;38.95;102138.53;7389112;19;20430;-63
2023/04/27 11:21:22;;;;;;;7.57;3.30;;;;;;;12.23;39.53;102141.19;7389380;19;20022;-64
2023/04/27 11:23:49;;;;;;;6.55;3.55;;;;;;;12.18;39.33;102146.78;7393188;19;20038;-64
2023/04/27 11:26:18;;;;;;;10.63;3.88;;;;;;;11.92;39.42;102143.81;7394258;19;20372;-64
2023/04/27 11:29:04;;;;;;;7.43;3.20;;;;;;;11.96;39.31;102139.19;7394889;19;20027;-66
2023/04/27 11:31:48;;;;;;;7.60;3.50;;;;;;;12.15;39.21;102137.19;7395648;19;20644;-66
2023/04/27 11:34:20;;;;;;;6.32;3.15;;;;;;;12.41;38.69;102129.50;7394406;19;20349;-63